Needingworth, United Kingdom
Current Conditions -  °F | °C
As of 8:50 AM on Sunday 26 Oct 2014 (Local Time) from EGSC Reporting Station
Broken Clouds Broken Clouds  
Wind Chill: 54°   Ceiling: 3200
Heat Index: 54°   Visibility: 6mi
Dew Point: 46°   Wind: 12mph
Humidity: 77%   Direction: 200°SSW
Pressure: 30.12"   Gusts: NA
Location:  52.33°N, 0.03°W
Report Text: EGSC 260750Z 20010KT 160V260 9999 SCT025 BKN032 12/08 Q1020
Loading
Personal Weather Stations






























Interactive Weather Map
Tropical Storm Tracking
New forecast layout! Learn more

10-Day Weather Forecast

Advertisements
Track Severe Weather on mobile